createdAt,value
2022-09-12T00:00:34.912Z,98902.16
2022-09-12T00:06:02.271Z,98900.15
2022-09-12T00:11:11.199Z,98891.48
2022-09-12T00:16:20.770Z,98885.91
2022-09-12T00:21:27.813Z,98891.14
2022-09-12T00:38:07.238Z,98898.39
2022-09-12T00:43:17.097Z,98895.04
2022-09-12T00:48:33.611Z,98899.65
2022-09-12T00:53:43.522Z,98897.87
2022-09-12T00:59:11.194Z,98898.63
2022-09-12T01:04:31.502Z,98899.77
2022-09-12T01:09:54.363Z,98900.73
2022-09-12T01:15:03.612Z,98895.98
2022-09-12T01:20:42.641Z,98900.35
2022-09-12T01:26:51.521Z,98897.99
2022-09-12T01:32:18.406Z,98900.23
2022-09-12T01:38:22.128Z,98902.85
2022-09-12T01:43:55.137Z,98903.84
2022-09-12T01:49:41.739Z,98901.99
2022-09-12T01:55:26.807Z,98907.84
2022-09-12T02:01:00.794Z,98910.25
2022-09-12T02:06:54.169Z,98915.16
2022-09-12T02:12:48.667Z,98920.94
2022-09-12T02:18:42.936Z,98920.30
2022-09-12T02:24:08.913Z,98917.91
2022-09-12T02:29:49.968Z,98914.95
2022-09-12T02:35:01.904Z,98909.25
2022-09-12T02:40:12.704Z,98906.58
2022-09-12T02:45:24.926Z,98902.89
2022-09-12T02:50:36.712Z,98898.77
2022-09-12T02:55:46.574Z,98901.02
2022-09-12T03:01:26.216Z,98902.23
2022-09-12T03:06:59.866Z,98904.70
2022-09-12T03:12:36.445Z,98912.28
2022-09-12T03:18:17.882Z,98910.14
2022-09-12T03:24:06.747Z,98913.29
2022-09-12T03:29:16.238Z,98911.66
2022-09-12T03:34:24.917Z,98916.03
2022-09-12T03:39:31.831Z,98918.39
2022-09-12T03:44:37.162Z,98923.19
2022-09-12T03:49:43.976Z,98932.30
2022-09-12T03:54:49.276Z,98935.73
2022-09-12T03:59:56.154Z,98938.28
2022-09-12T04:05:03.164Z,98942.92
2022-09-12T04:10:10.782Z,98943.66
2022-09-12T04:15:17.661Z,98943.45
2022-09-12T04:20:24.693Z,98944.31
2022-09-12T04:25:31.594Z,98949.05
2022-09-12T04:33:38.114Z,98949.92
2022-09-12T04:38:46.352Z,98950.81
2022-09-12T04:43:58.325Z,98952.87
2022-09-12T04:49:05.962Z,98953.16
2022-09-12T04:54:16.288Z,98957.65
2022-09-12T04:59:23.933Z,98966.00
2022-09-12T05:04:31.856Z,98972.86
2022-09-12T05:09:39.047Z,98980.17
2022-09-12T05:14:46.611Z,98982.57
2022-09-12T05:19:53.528Z,98986.61
2022-09-12T05:24:58.801Z,98986.80
2022-09-12T05:30:06.358Z,98991.12
2022-09-12T05:35:13.788Z,98998.88
2022-09-12T05:40:21.839Z,99006.77
2022-09-12T05:45:28.690Z,99012.02
2022-09-12T05:50:35.834Z,99012.92
2022-09-12T05:55:42.934Z,99006.17
2022-09-12T06:00:50.565Z,99006.30
2022-09-12T06:05:57.463Z,99012.07
2022-09-12T06:11:04.049Z,99009.77
2022-09-12T06:16:12.741Z,99011.84
2022-09-12T06:21:19.724Z,99014.52
2022-09-12T06:26:25.851Z,99014.30
2022-09-12T06:31:35.770Z,99013.98
2022-09-12T06:36:44.211Z,99012.76
2022-09-12T06:41:52.124Z,99017.71
2022-09-12T06:46:58.964Z,99019.56
2022-09-12T06:52:04.583Z,99028.09
2022-09-12T06:57:11.637Z,99031.44
2022-09-12T07:02:19.845Z,99034.91
2022-09-12T07:07:26.796Z,99035.52
2022-09-12T07:12:32.109Z,99037.63
2022-09-12T07:17:39.000Z,99043.04
2022-09-12T07:22:47.066Z,99044.17
2022-09-12T07:27:55.517Z,99043.77
2022-09-12T07:33:03.756Z,99047.42
2022-09-12T07:38:10.989Z,99048.28
2022-09-12T07:43:17.843Z,99060.90
2022-09-12T07:48:25.221Z,99061.89
2022-09-12T07:53:37.115Z,99060.92
2022-09-12T07:58:44.873Z,99061.32
2022-09-12T08:03:55.638Z,99060.39
2022-09-12T08:09:03.068Z,99062.04
2022-09-12T08:14:10.245Z,99064.35
2022-09-12T08:19:17.135Z,99067.20
2022-09-12T08:24:25.183Z,99077.42
2022-09-12T08:29:32.164Z,99082.13
2022-09-12T08:34:40.680Z,99083.25
2022-09-12T08:39:48.063Z,99076.58
2022-09-12T08:45:09.551Z,99073.09
2022-09-12T08:50:23.409Z,99068.38
2022-09-12T08:55:38.798Z,99074.83
2022-09-12T09:00:56.019Z,99072.62
2022-09-12T09:06:07.198Z,99068.34
2022-09-12T09:11:28.325Z,99069.15
2022-09-12T09:16:38.858Z,99073.21
2022-09-12T09:21:51.052Z,99069.38
2022-09-12T09:27:14.318Z,99067.34
2022-09-12T09:32:35.733Z,99066.09
2022-09-12T09:38:02.117Z,99063.86
2022-09-12T09:43:23.206Z,99065.50
2022-09-12T09:48:32.511Z,99059.96
2022-09-12T09:53:47.131Z,99062.31
2022-09-12T09:58:54.067Z,99059.10
2022-09-12T10:04:01.538Z,99062.08
2022-09-12T10:09:19.887Z,99061.02
2022-09-12T10:14:35.196Z,99058.21
2022-09-12T10:19:42.791Z,99057.35
2022-09-12T10:24:53.842Z,99064.33
2022-09-12T10:30:08.005Z,99055.10
2022-09-12T10:45:31.102Z,99055.81
2022-09-12T10:50:46.702Z,99055.50
2022-09-12T10:56:45.323Z,99054.91
2022-09-12T11:02:17.267Z,99054.21
2022-09-12T11:07:41.162Z,99053.27
2022-09-12T11:13:17.400Z,99054.73
2022-09-12T11:18:54.786Z,99053.36
2022-09-12T11:30:12.623Z,99045.33
2022-09-12T11:35:59.387Z,99048.30
2022-09-12T11:41:45.047Z,99044.38
2022-09-12T11:46:59.129Z,99043.89
2022-09-12T11:52:27.496Z,99043.13
2022-09-12T11:57:43.608Z,99047.54
2022-09-12T12:03:05.423Z,99047.43
2022-09-12T12:08:17.358Z,99044.91
2022-09-12T12:13:28.239Z,99044.41
2022-09-12T12:18:39.115Z,99039.14
2022-09-12T12:24:12.804Z,99046.38
2022-09-12T12:29:43.930Z,99040.26
2022-09-12T12:34:51.497Z,99032.61
2022-09-12T12:40:10.028Z,99037.55
2022-09-12T12:45:48.943Z,99045.11
2022-09-12T12:51:18.561Z,99044.74
2022-09-12T12:56:47.145Z,99033.54
2022-09-12T13:01:59.028Z,99039.39
2022-09-12T13:07:12.283Z,99036.95
2022-09-12T13:12:25.596Z,99035.33
2022-09-12T13:17:40.327Z,99035.09
2022-09-12T13:22:53.457Z,99032.73
2022-09-12T13:36:57.045Z,99018.98
2022-09-12T13:42:41.498Z,99014.64
2022-09-12T13:47:55.399Z,99012.00
2022-09-12T13:53:23.574Z,99013.72
2022-09-12T13:58:33.250Z,99011.08
2022-09-12T14:04:07.311Z,99014.31
2022-09-12T14:09:31.727Z,99014.80
2022-09-12T14:14:47.641Z,99015.48
2022-09-12T14:20:00.801Z,99018.59
2022-09-12T14:25:20.145Z,99015.64
2022-09-12T14:30:30.677Z,99025.04
2022-09-12T14:35:42.674Z,99017.34
2022-09-12T14:40:53.093Z,99012.69
2022-09-12T14:46:03.516Z,99016.10
2022-09-12T14:51:19.812Z,99015.37
2022-09-12T14:56:41.719Z,99008.76
2022-09-12T15:01:49.857Z,99006.09
2022-09-12T15:06:57.100Z,99009.14
2022-09-12T15:12:05.981Z,99011.45
2022-09-12T15:17:14.398Z,99010.76
2022-09-12T15:22:26.350Z,99006.05
2022-09-12T15:27:34.931Z,99008.16
2022-09-12T15:32:45.343Z,99014.36
2022-09-12T15:37:55.732Z,99013.14
2022-09-12T15:43:03.437Z,99013.10
2022-09-12T15:48:11.361Z,99011.30
2022-09-12T15:53:20.477Z,99013.80
2022-09-12T15:58:32.774Z,99012.16
2022-09-12T16:03:40.854Z,99012.77
2022-09-12T16:08:49.784Z,99014.80
2022-09-12T16:14:03.440Z,99014.02
2022-09-12T16:19:13.027Z,99014.83
2022-09-12T16:24:41.432Z,99023.64
2022-09-12T16:29:59.401Z,99022.17
2022-09-12T16:35:13.290Z,99021.46
2022-09-12T16:40:21.897Z,99026.09
2022-09-12T16:45:32.865Z,99030.85
2022-09-12T16:50:41.015Z,99030.27
2022-09-12T16:55:55.713Z,99033.23
2022-09-12T17:01:22.531Z,99032.04
2022-09-12T17:12:00.351Z,99039.05
2022-09-12T17:17:16.406Z,99040.88
2022-09-12T17:22:24.736Z,99046.33
2022-09-12T17:27:32.626Z,99053.77
2022-09-12T17:32:41.236Z,99053.91
2022-09-12T17:38:03.283Z,99053.69
2022-09-12T17:43:22.865Z,99055.09
2022-09-12T17:48:31.860Z,99056.65
2022-09-12T17:53:49.228Z,99057.45
2022-09-12T17:59:04.687Z,99063.77
2022-09-12T18:04:14.001Z,99066.81
2022-09-12T18:09:23.473Z,99069.35
2022-09-12T18:14:31.825Z,99078.89
2022-09-12T18:19:41.130Z,99082.04
2022-09-12T18:30:22.223Z,99083.80
2022-09-12T18:35:30.361Z,99083.02
2022-09-12T18:40:42.017Z,99086.46
2022-09-12T18:45:58.016Z,99086.61
2022-09-12T18:51:08.453Z,99088.88
2022-09-12T18:56:24.356Z,99086.33
2022-09-12T19:02:06.622Z,99088.25
2022-09-12T19:07:17.854Z,99088.16
2022-09-12T19:12:43.475Z,99084.16
2022-09-12T19:18:18.824Z,99086.23
2022-09-12T19:23:26.433Z,99082.48
2022-09-12T19:28:48.927Z,99084.19
2022-09-12T19:34:00.051Z,99084.46
2022-09-12T19:39:13.589Z,99075.54
2022-09-12T19:44:28.292Z,99076.31
2022-09-12T19:56:11.273Z,99069.45
2022-09-12T20:01:25.472Z,99067.56
2022-09-12T20:06:33.198Z,99060.36
2022-09-12T20:11:41.178Z,99057.86
2022-09-12T20:16:49.097Z,99048.27
2022-09-12T20:21:57.832Z,99043.77
2022-09-12T20:27:10.966Z,99044.09
2022-09-12T20:32:31.119Z,99040.92
2022-09-12T20:37:40.914Z,99037.46
2022-09-12T20:42:53.661Z,99033.29
2022-09-12T20:48:01.374Z,99032.50
2022-09-12T20:53:13.797Z,99036.84
2022-09-12T20:58:23.968Z,99039.77
2022-09-12T21:03:32.301Z,99045.85
2022-09-12T21:08:43.336Z,99043.03
2022-09-12T21:13:54.850Z,99042.73
2022-09-12T21:19:09.153Z,99047.89
2022-09-12T21:24:18.508Z,99046.45
2022-09-12T21:29:26.939Z,99045.28
2022-09-12T21:34:35.522Z,99048.03
2022-09-12T21:39:52.082Z,99048.75
2022-09-12T21:45:00.827Z,99044.07
2022-09-12T21:50:11.051Z,99035.68
2022-09-12T21:55:29.566Z,99033.86
2022-09-12T22:06:51.201Z,99040.75
2022-09-12T22:11:59.635Z,99040.85
2022-09-12T22:17:11.595Z,99039.56
2022-09-12T22:22:52.310Z,99035.46
2022-09-12T22:28:17.329Z,99027.20
2022-09-12T22:33:30.358Z,99024.27
2022-09-12T22:38:51.486Z,99021.02
2022-09-12T22:44:08.605Z,99017.66
2022-09-12T22:49:16.961Z,99012.86
2022-09-12T22:54:27.362Z,99011.48
2022-09-12T22:59:35.334Z,99007.09
2022-09-12T23:04:45.097Z,99003.86
2022-09-12T23:09:56.443Z,99004.31
2022-09-12T23:15:07.383Z,99001.67
2022-09-12T23:20:19.308Z,98999.55
2022-09-12T23:25:27.778Z,99002.44
2022-09-12T23:30:36.311Z,99003.95
2022-09-12T23:35:44.743Z,99001.02
2022-09-12T23:46:23.808Z,99006.86
2022-09-12T23:51:36.033Z,99011.27
2022-09-12T23:56:49.012Z,99005.70
